sensor_id;sensor_type;location;lat;lon;timestamp;P1;durP1;ratioP1;P2;durP2;ratioP2
74177;SDS011;62540;48.456;-4.456;2024-01-11T00:01:58;18.75;;;14.75;;
74177;SDS011;62540;48.456;-4.456;2024-01-11T00:04:24;15.25;;;14.25;;
74177;SDS011;62540;48.456;-4.456;2024-01-11T00:06:50;18.00;;;14.25;;
74177;SDS011;62540;48.456;-4.456;2024-01-11T00:09:16;16.50;;;14.50;;
74177;SDS011;62540;48.456;-4.456;2024-01-11T00:11:41;21.75;;;17.50;;
74177;SDS011;62540;48.456;-4.456;2024-01-11T00:14:06;17.50;;;16.50;;
74177;SDS011;62540;48.456;-4.456;2024-01-11T00:16:32;17.50;;;16.00;;
74177;SDS011;62540;48.456;-4.456;2024-01-11T00:18:57;17.50;;;16.50;;
74177;SDS011;62540;48.456;-4.456;2024-01-11T00:21:23;15.75;;;15.75;;
74177;SDS011;62540;48.456;-4.456;2024-01-11T00:23:48;18.25;;;15.75;;
74177;SDS011;62540;48.456;-4.456;2024-01-11T00:26:14;22.75;;;18.25;;
74177;SDS011;62540;48.456;-4.456;2024-01-11T00:28:40;16.50;;;15.50;;
74177;SDS011;62540;48.456;-4.456;2024-01-11T00:31:05;17.00;;;15.25;;
74177;SDS011;62540;48.456;-4.456;2024-01-11T00:33:31;20.50;;;16.75;;
74177;SDS011;62540;48.456;-4.456;2024-01-11T00:35:56;17.75;;;16.25;;
74177;SDS011;62540;48.456;-4.456;2024-01-11T00:38:23;23.75;;;20.25;;
74177;SDS011;62540;48.456;-4.456;2024-01-11T00:40:48;21.00;;;19.00;;
74177;SDS011;62540;48.456;-4.456;2024-01-11T00:43:14;16.75;;;13.25;;
74177;SDS011;62540;48.456;-4.456;2024-01-11T00:45:39;19.50;;;16.00;;
74177;SDS011;62540;48.456;-4.456;2024-01-11T00:48:05;18.75;;;17.00;;
74177;SDS011;62540;48.456;-4.456;2024-01-11T00:50:31;27.50;;;20.75;;
74177;SDS011;62540;48.456;-4.456;2024-01-11T00:52:56;22.00;;;17.50;;
74177;SDS011;62540;48.456;-4.456;2024-01-11T00:55:22;27.50;;;22.50;;
74177;SDS011;62540;48.456;-4.456;2024-01-11T00:57:47;26.00;;;25.50;;
74177;SDS011;62540;48.456;-4.456;2024-01-11T01:00:13;26.75;;;22.50;;
74177;SDS011;62540;48.456;-4.456;2024-01-11T01:02:41;29.00;;;23.50;;
74177;SDS011;62540;48.456;-4.456;2024-01-11T01:05:07;23.50;;;23.00;;
74177;SDS011;62540;48.456;-4.456;2024-01-11T01:07:33;31.75;;;27.25;;
74177;SDS011;62540;48.456;-4.456;2024-01-11T01:09:58;35.75;;;28.75;;
74177;SDS011;62540;48.456;-4.456;2024-01-11T01:12:23;34.75;;;29.00;;
74177;SDS011;62540;48.456;-4.456;2024-01-11T01:14:52;29.25;;;24.50;;
74177;SDS011;62540;48.456;-4.456;2024-01-11T01:17:17;39.25;;;34.75;;
74177;SDS011;62540;48.456;-4.456;2024-01-11T01:19:43;30.00;;;29.00;;
74177;SDS011;62540;48.456;-4.456;2024-01-11T01:22:08;39.25;;;35.00;;
74177;SDS011;62540;48.456;-4.456;2024-01-11T01:24:34;35.00;;;32.50;;
74177;SDS011;62540;48.456;-4.456;2024-01-11T01:27:00;43.75;;;36.25;;
74177;SDS011;62540;48.456;-4.456;2024-01-11T01:29:25;38.75;;;33.00;;
74177;SDS011;62540;48.456;-4.456;2024-01-11T01:31:51;37.50;;;32.50;;
74177;SDS011;62540;48.456;-4.456;2024-01-11T01:34:17;39.75;;;35.25;;
74177;SDS011;62540;48.456;-4.456;2024-01-11T01:36:42;43.00;;;38.25;;
74177;SDS011;62540;48.456;-4.456;2024-01-11T01:39:08;46.60;;;38.00;;
74177;SDS011;62540;48.456;-4.456;2024-01-11T01:41:33;38.00;;;32.75;;
74177;SDS011;62540;48.456;-4.456;2024-01-11T01:43:59;43.75;;;37.75;;
74177;SDS011;62540;48.456;-4.456;2024-01-11T01:46:24;42.75;;;36.75;;
74177;SDS011;62540;48.456;-4.456;2024-01-11T01:48:51;42.75;;;35.50;;
74177;SDS011;62540;48.456;-4.456;2024-01-11T01:51:18;41.25;;;36.50;;
74177;SDS011;62540;48.456;-4.456;2024-01-11T01:53:44;45.00;;;35.75;;
74177;SDS011;62540;48.456;-4.456;2024-01-11T01:56:10;43.50;;;35.75;;
74177;SDS011;62540;48.456;-4.456;2024-01-11T01:58:36;33.25;;;31.25;;
74177;SDS011;62540;48.456;-4.456;2024-01-11T02:01:02;40.25;;;36.00;;
74177;SDS011;62540;48.456;-4.456;2024-01-11T02:03:28;38.50;;;35.50;;
74177;SDS011;62540;48.456;-4.456;2024-01-11T02:05:54;48.50;;;36.75;;
74177;SDS011;62540;48.456;-4.456;2024-01-11T02:08:21;37.75;;;33.00;;
74177;SDS011;62540;48.456;-4.456;2024-01-11T02:10:48;39.50;;;34.25;;
74177;SDS011;62540;48.456;-4.456;2024-01-11T02:13:14;45.00;;;36.00;;
74177;SDS011;62540;48.456;-4.456;2024-01-11T02:15:40;45.00;;;36.75;;
74177;SDS011;62540;48.456;-4.456;2024-01-11T02:18:05;45.50;;;37.25;;
74177;SDS011;62540;48.456;-4.456;2024-01-11T02:20:31;42.50;;;36.50;;
74177;SDS011;62540;48.456;-4.456;2024-01-11T02:22:58;45.50;;;34.50;;
74177;SDS011;62540;48.456;-4.456;2024-01-11T02:25:28;39.00;;;33.25;;
74177;SDS011;62540;48.456;-4.456;2024-01-11T02:27:54;43.50;;;35.75;;
74177;SDS011;62540;48.456;-4.456;2024-01-11T02:30:19;38.75;;;32.75;;
74177;SDS011;62540;48.456;-4.456;2024-01-11T02:32:48;41.75;;;34.00;;
74177;SDS011;62540;48.456;-4.456;2024-01-11T02:35:17;44.00;;;32.75;;
74177;SDS011;62540;48.456;-4.456;2024-01-11T02:37:43;44.00;;;32.25;;
74177;SDS011;62540;48.456;-4.456;2024-01-11T02:40:10;41.25;;;34.75;;
74177;SDS011;62540;48.456;-4.456;2024-01-11T02:42:38;31.25;;;28.25;;
74177;SDS011;62540;48.456;-4.456;2024-01-11T02:45:03;50.00;;;36.50;;
74177;SDS011;62540;48.456;-4.456;2024-01-11T02:47:29;41.25;;;32.75;;
74177;SDS011;62540;48.456;-4.456;2024-01-11T02:49:55;38.50;;;35.25;;
74177;SDS011;62540;48.456;-4.456;2024-01-11T02:52:22;33.50;;;28.50;;
74177;SDS011;62540;48.456;-4.456;2024-01-11T02:54:48;38.00;;;31.50;;
74177;SDS011;62540;48.456;-4.456;2024-01-11T02:57:13;38.50;;;33.25;;
74177;SDS011;62540;48.456;-4.456;2024-01-11T02:59:39;40.50;;;34.50;;
74177;SDS011;62540;48.456;-4.456;2024-01-11T03:02:05;42.75;;;37.75;;
74177;SDS011;62540;48.456;-4.456;2024-01-11T03:04:31;39.25;;;35.00;;
74177;SDS011;62540;48.456;-4.456;2024-01-11T03:06:56;41.25;;;34.00;;
74177;SDS011;62540;48.456;-4.456;2024-01-11T03:09:21;35.50;;;33.25;;
74177;SDS011;62540;48.456;-4.456;2024-01-11T03:11:47;28.25;;;23.25;;
74177;SDS011;62540;48.456;-4.456;2024-01-11T03:14:12;41.75;;;36.00;;
74177;SDS011;62540;48.456;-4.456;2024-01-11T03:16:38;35.50;;;28.50;;
74177;SDS011;62540;48.456;-4.456;2024-01-11T03:19:04;39.75;;;34.00;;
74177;SDS011;62540;48.456;-4.456;2024-01-11T03:21:30;41.00;;;34.25;;
74177;SDS011;62540;48.456;-4.456;2024-01-11T03:23:55;38.50;;;34.75;;
74177;SDS011;62540;48.456;-4.456;2024-01-11T03:26:21;41.75;;;37.25;;
74177;SDS011;62540;48.456;-4.456;2024-01-11T03:28:47;42.25;;;35.25;;
74177;SDS011;62540;48.456;-4.456;2024-01-11T03:31:12;39.75;;;33.75;;
74177;SDS011;62540;48.456;-4.456;2024-01-11T03:33:38;41.75;;;34.50;;
74177;SDS011;62540;48.456;-4.456;2024-01-11T03:36:07;36.75;;;33.50;;
74177;SDS011;62540;48.456;-4.456;2024-01-11T03:38:34;40.50;;;34.00;;
74177;SDS011;62540;48.456;-4.456;2024-01-11T03:40:59;41.25;;;34.25;;
74177;SDS011;62540;48.456;-4.456;2024-01-11T03:43:25;35.75;;;32.50;;
74177;SDS011;62540;48.456;-4.456;2024-01-11T03:45:50;42.50;;;36.00;;
74177;SDS011;62540;48.456;-4.456;2024-01-11T03:48:16;41.75;;;32.50;;
74177;SDS011;62540;48.456;-4.456;2024-01-11T03:50:41;50.00;;;39.25;;
74177;SDS011;62540;48.456;-4.456;2024-01-11T03:53:06;43.75;;;36.25;;
74177;SDS011;62540;48.456;-4.456;2024-01-11T03:55:33;45.25;;;35.00;;
74177;SDS011;62540;48.456;-4.456;2024-01-11T03:57:58;49.00;;;37.25;;
74177;SDS011;62540;48.456;-4.456;2024-01-11T04:00:23;49.25;;;37.25;;
74177;SDS011;62540;48.456;-4.456;2024-01-11T04:02:49;53.75;;;40.25;;
74177;SDS011;62540;48.456;-4.456;2024-01-11T04:05:14;50.00;;;39.75;;
74177;SDS011;62540;48.456;-4.456;2024-01-11T04:07:40;43.00;;;37.25;;
74177;SDS011;62540;48.456;-4.456;2024-01-11T04:10:06;43.25;;;37.75;;
74177;SDS011;62540;48.456;-4.456;2024-01-11T04:12:34;36.25;;;29.25;;
74177;SDS011;62540;48.456;-4.456;2024-01-11T04:15:00;39.00;;;36.50;;
74177;SDS011;62540;48.456;-4.456;2024-01-11T04:17:26;47.00;;;34.25;;
74177;SDS011;62540;48.456;-4.456;2024-01-11T04:19:51;45.75;;;36.00;;
74177;SDS011;62540;48.456;-4.456;2024-01-11T04:22:16;33.75;;;29.75;;
74177;SDS011;62540;48.456;-4.456;2024-01-11T04:24:42;47.25;;;37.00;;
74177;SDS011;62540;48.456;-4.456;2024-01-11T04:27:08;40.00;;;37.00;;
74177;SDS011;62540;48.456;-4.456;2024-01-11T04:29:33;42.75;;;37.00;;
74177;SDS011;62540;48.456;-4.456;2024-01-11T04:31:59;41.25;;;35.75;;
74177;SDS011;62540;48.456;-4.456;2024-01-11T04:34:24;42.50;;;38.00;;
74177;SDS011;62540;48.456;-4.456;2024-01-11T04:36:49;45.25;;;37.25;;
74177;SDS011;62540;48.456;-4.456;2024-01-11T04:39:15;40.50;;;37.25;;
74177;SDS011;62540;48.456;-4.456;2024-01-11T04:41:41;45.00;;;36.00;;
74177;SDS011;62540;48.456;-4.456;2024-01-11T04:44:06;54.00;;;31.75;;
74177;SDS011;62540;48.456;-4.456;2024-01-11T04:46:32;40.75;;;32.00;;
74177;SDS011;62540;48.456;-4.456;2024-01-11T04:48:57;41.25;;;34.25;;
74177;SDS011;62540;48.456;-4.456;2024-01-11T04:51:22;43.00;;;37.75;;
74177;SDS011;62540;48.456;-4.456;2024-01-11T04:53:48;39.75;;;31.50;;
74177;SDS011;62540;48.456;-4.456;2024-01-11T04:56:14;45.00;;;32.75;;
74177;SDS011;62540;48.456;-4.456;2024-01-11T04:58:40;37.00;;;31.00;;
74177;SDS011;62540;48.456;-4.456;2024-01-11T05:01:07;44.00;;;33.50;;
74177;SDS011;62540;48.456;-4.456;2024-01-11T05:03:40;37.00;;;31.00;;
74177;SDS011;62540;48.456;-4.456;2024-01-11T05:06:06;42.25;;;36.00;;
74177;SDS011;62540;48.456;-4.456;2024-01-11T05:08:31;32.75;;;25.75;;
74177;SDS011;62540;48.456;-4.456;2024-01-11T05:10:57;43.25;;;35.00;;
74177;SDS011;62540;48.456;-4.456;2024-01-11T05:13:22;45.00;;;37.75;;
74177;SDS011;62540;48.456;-4.456;2024-01-11T05:15:48;35.50;;;32.00;;
74177;SDS011;62540;48.456;-4.456;2024-01-11T05:18:13;41.00;;;31.25;;
74177;SDS011;62540;48.456;-4.456;2024-01-11T05:20:39;35.00;;;31.50;;
74177;SDS011;62540;48.456;-4.456;2024-01-11T05:23:05;47.75;;;38.00;;
74177;SDS011;62540;48.456;-4.456;2024-01-11T05:25:31;44.50;;;33.25;;
74177;SDS011;62540;48.456;-4.456;2024-01-11T05:28:00;39.50;;;32.00;;
74177;SDS011;62540;48.456;-4.456;2024-01-11T05:30:25;34.75;;;30.50;;
74177;SDS011;62540;48.456;-4.456;2024-01-11T05:32:51;34.50;;;26.25;;
74177;SDS011;62540;48.456;-4.456;2024-01-11T05:35:16;39.00;;;34.00;;
74177;SDS011;62540;48.456;-4.456;2024-01-11T05:37:42;35.25;;;25.50;;
74177;SDS011;62540;48.456;-4.456;2024-01-11T05:40:07;37.00;;;30.00;;
74177;SDS011;62540;48.456;-4.456;2024-01-11T05:42:33;42.75;;;34.00;;
74177;SDS011;62540;48.456;-4.456;2024-01-11T05:44:58;31.00;;;25.75;;
74177;SDS011;62540;48.456;-4.456;2024-01-11T05:47:24;32.50;;;28.00;;
74177;SDS011;62540;48.456;-4.456;2024-01-11T05:49:49;36.00;;;30.75;;
74177;SDS011;62540;48.456;-4.456;2024-01-11T05:52:15;36.50;;;28.00;;
74177;SDS011;62540;48.456;-4.456;2024-01-11T05:54:40;41.25;;;29.25;;
74177;SDS011;62540;48.456;-4.456;2024-01-11T05:57:06;38.75;;;34.00;;
74177;SDS011;62540;48.456;-4.456;2024-01-11T05:59:32;42.00;;;32.75;;
74177;SDS011;62540;48.456;-4.456;2024-01-11T06:01:58;31.50;;;26.25;;
74177;SDS011;62540;48.456;-4.456;2024-01-11T06:04:25;35.50;;;27.25;;
74177;SDS011;62540;48.456;-4.456;2024-01-11T06:06:51;37.50;;;29.25;;
74177;SDS011;62540;48.456;-4.456;2024-01-11T06:09:17;36.50;;;29.00;;
74177;SDS011;62540;48.456;-4.456;2024-01-11T06:11:42;34.00;;;30.00;;
74177;SDS011;62540;48.456;-4.456;2024-01-11T06:14:08;36.75;;;29.75;;
74177;SDS011;62540;48.456;-4.456;2024-01-11T06:16:34;35.50;;;30.25;;
74177;SDS011;62540;48.456;-4.456;2024-01-11T06:18:59;28.25;;;26.25;;
74177;SDS011;62540;48.456;-4.456;2024-01-11T06:21:24;30.25;;;27.25;;
74177;SDS011;62540;48.456;-4.456;2024-01-11T06:23:51;37.00;;;29.50;;
74177;SDS011;62540;48.456;-4.456;2024-01-11T06:26:16;33.25;;;29.25;;
74177;SDS011;62540;48.456;-4.456;2024-01-11T06:28:42;31.00;;;23.50;;
74177;SDS011;62540;48.456;-4.456;2024-01-11T06:31:09;35.75;;;30.75;;
74177;SDS011;62540;48.456;-4.456;2024-01-11T06:33:35;27.25;;;22.25;;
74177;SDS011;62540;48.456;-4.456;2024-01-11T06:36:02;33.00;;;30.50;;
74177;SDS011;62540;48.456;-4.456;2024-01-11T06:38:29;16.00;;;16.00;;
74177;SDS011;62540;48.456;-4.456;2024-01-11T06:40:56;32.75;;;28.25;;
74177;SDS011;62540;48.456;-4.456;2024-01-11T06:43:22;36.75;;;26.75;;
74177;SDS011;62540;48.456;-4.456;2024-01-11T06:45:47;27.25;;;24.25;;
74177;SDS011;62540;48.456;-4.456;2024-01-11T06:48:13;34.00;;;31.25;;
74177;SDS011;62540;48.456;-4.456;2024-01-11T06:50:38;38.25;;;30.50;;
74177;SDS011;62540;48.456;-4.456;2024-01-11T06:53:03;29.25;;;23.75;;
74177;SDS011;62540;48.456;-4.456;2024-01-11T06:55:29;33.25;;;22.50;;
74177;SDS011;62540;48.456;-4.456;2024-01-11T06:57:55;38.50;;;32.25;;
74177;SDS011;62540;48.456;-4.456;2024-01-11T07:00:20;35.50;;;30.25;;
74177;SDS011;62540;48.456;-4.456;2024-01-11T07:02:46;34.00;;;28.75;;
74177;SDS011;62540;48.456;-4.456;2024-01-11T07:05:12;28.00;;;26.00;;
74177;SDS011;62540;48.456;-4.456;2024-01-11T07:07:37;31.75;;;26.25;;
74177;SDS011;62540;48.456;-4.456;2024-01-11T07:10:03;31.00;;;19.00;;
74177;SDS011;62540;48.456;-4.456;2024-01-11T07:12:30;34.25;;;29.50;;
74177;SDS011;62540;48.456;-4.456;2024-01-11T07:14:56;41.25;;;30.50;;
74177;SDS011;62540;48.456;-4.456;2024-01-11T07:17:21;36.75;;;32.75;;
74177;SDS011;62540;48.456;-4.456;2024-01-11T07:19:47;30.00;;;23.75;;
74177;SDS011;62540;48.456;-4.456;2024-01-11T07:22:13;32.50;;;29.50;;
74177;SDS011;62540;48.456;-4.456;2024-01-11T07:24:38;26.00;;;23.50;;
74177;SDS011;62540;48.456;-4.456;2024-01-11T07:27:07;34.25;;;27.25;;
74177;SDS011;62540;48.456;-4.456;2024-01-11T07:29:33;31.50;;;29.00;;
74177;SDS011;62540;48.456;-4.456;2024-01-11T07:31:59;34.75;;;21.50;;
74177;SDS011;62540;48.456;-4.456;2024-01-11T07:34:24;37.00;;;30.75;;
74177;SDS011;62540;48.456;-4.456;2024-01-11T07:36:51;31.25;;;26.50;;
74177;SDS011;62540;48.456;-4.456;2024-01-11T07:39:17;31.25;;;28.25;;
74177;SDS011;62540;48.456;-4.456;2024-01-11T07:41:43;34.75;;;30.75;;
74177;SDS011;62540;48.456;-4.456;2024-01-11T07:44:08;32.25;;;25.00;;
74177;SDS011;62540;48.456;-4.456;2024-01-11T07:46:33;33.50;;;28.75;;
74177;SDS011;62540;48.456;-4.456;2024-01-11T07:48:59;31.75;;;26.50;;
74177;SDS011;62540;48.456;-4.456;2024-01-11T07:51:24;33.50;;;30.00;;
74177;SDS011;62540;48.456;-4.456;2024-01-11T07:53:50;35.00;;;27.25;;
74177;SDS011;62540;48.456;-4.456;2024-01-11T07:56:15;36.50;;;33.50;;
74177;SDS011;62540;48.456;-4.456;2024-01-11T07:58:42;43.75;;;27.50;;
74177;SDS011;62540;48.456;-4.456;2024-01-11T08:01:07;37.00;;;28.00;;
74177;SDS011;62540;48.456;-4.456;2024-01-11T08:03:33;32.75;;;29.25;;
74177;SDS011;62540;48.456;-4.456;2024-01-11T08:06:00;37.00;;;33.50;;
74177;SDS011;62540;48.456;-4.456;2024-01-11T08:08:26;31.25;;;28.75;;
74177;SDS011;62540;48.456;-4.456;2024-01-11T08:10:51;31.00;;;30.00;;
74177;SDS011;62540;48.456;-4.456;2024-01-11T08:13:17;28.00;;;25.50;;
74177;SDS011;62540;48.456;-4.456;2024-01-11T08:15:43;40.00;;;28.25;;
74177;SDS011;62540;48.456;-4.456;2024-01-11T08:18:08;39.75;;;32.25;;
74177;SDS011;62540;48.456;-4.456;2024-01-11T08:20:34;37.25;;;33.00;;
74177;SDS011;62540;48.456;-4.456;2024-01-11T08:22:59;37.75;;;35.00;;
74177;SDS011;62540;48.456;-4.456;2024-01-11T08:25:25;33.50;;;30.50;;
74177;SDS011;62540;48.456;-4.456;2024-01-11T08:27:50;31.25;;;28.50;;
74177;SDS011;62540;48.456;-4.456;2024-01-11T08:30:15;34.50;;;30.75;;
74177;SDS011;62540;48.456;-4.456;2024-01-11T08:32:41;40.00;;;34.50;;
74177;SDS011;62540;48.456;-4.456;2024-01-11T08:35:08;36.50;;;30.75;;
74177;SDS011;62540;48.456;-4.456;2024-01-11T08:37:35;41.00;;;34.50;;
74177;SDS011;62540;48.456;-4.456;2024-01-11T08:40:01;40.25;;;34.00;;
74177;SDS011;62540;48.456;-4.456;2024-01-11T08:42:26;31.50;;;25.00;;
74177;SDS011;62540;48.456;-4.456;2024-01-11T08:44:52;49.25;;;36.25;;
74177;SDS011;62540;48.456;-4.456;2024-01-11T08:47:17;37.25;;;32.00;;
74177;SDS011;62540;48.456;-4.456;2024-01-11T08:49:43;38.75;;;35.50;;
74177;SDS011;62540;48.456;-4.456;2024-01-11T08:52:08;37.50;;;32.50;;
74177;SDS011;62540;48.456;-4.456;2024-01-11T08:54:34;37.00;;;31.25;;
74177;SDS011;62540;48.456;-4.456;2024-01-11T08:57:00;40.25;;;33.75;;
74177;SDS011;62540;48.456;-4.456;2024-01-11T08:59:25;37.25;;;33.25;;
74177;SDS011;62540;48.456;-4.456;2024-01-11T09:01:51;42.50;;;31.50;;
74177;SDS011;62540;48.456;-4.456;2024-01-11T09:04:17;35.25;;;31.00;;
74177;SDS011;62540;48.456;-4.456;2024-01-11T09:06:43;36.25;;;30.50;;
74177;SDS011;62540;48.456;-4.456;2024-01-11T09:09:08;33.50;;;29.00;;
74177;SDS011;62540;48.456;-4.456;2024-01-11T09:11:35;35.50;;;30.25;;
74177;SDS011;62540;48.456;-4.456;2024-01-11T09:14:01;43.50;;;34.25;;
74177;SDS011;62540;48.456;-4.456;2024-01-11T09:16:28;31.50;;;27.50;;
74177;SDS011;62540;48.456;-4.456;2024-01-11T09:18:53;33.50;;;27.25;;
74177;SDS011;62540;48.456;-4.456;2024-01-11T09:21:19;33.25;;;28.50;;
74177;SDS011;62540;48.456;-4.456;2024-01-11T09:23:44;33.00;;;25.75;;
74177;SDS011;62540;48.456;-4.456;2024-01-11T09:26:10;33.00;;;28.75;;
74177;SDS011;62540;48.456;-4.456;2024-01-11T09:28:35;33.75;;;30.75;;
74177;SDS011;62540;48.456;-4.456;2024-01-11T09:31:01;30.50;;;27.00;;
74177;SDS011;62540;48.456;-4.456;2024-01-11T09:33:27;35.50;;;27.75;;
74177;SDS011;62540;48.456;-4.456;2024-01-11T09:35:53;36.00;;;28.75;;
74177;SDS011;62540;48.456;-4.456;2024-01-11T09:38:21;29.50;;;26.25;;
74177;SDS011;62540;48.456;-4.456;2024-01-11T09:40:48;30.25;;;28.25;;
74177;SDS011;62540;48.456;-4.456;2024-01-11T09:43:29;26.50;;;24.75;;
74177;SDS011;62540;48.456;-4.456;2024-01-11T09:45:55;28.25;;;26.75;;
74177;SDS011;62540;48.456;-4.456;2024-01-11T09:48:21;26.50;;;25.00;;
74177;SDS011;62540;48.456;-4.456;2024-01-11T09:50:48;31.75;;;27.50;;
74177;SDS011;62540;48.456;-4.456;2024-01-11T09:53:15;33.75;;;27.00;;
74177;SDS011;62540;48.456;-4.456;2024-01-11T09:55:42;32.50;;;24.50;;
74177;SDS011;62540;48.456;-4.456;2024-01-11T09:58:07;36.00;;;30.75;;
74177;SDS011;62540;48.456;-4.456;2024-01-11T10:00:34;32.00;;;28.00;;
74177;SDS011;62540;48.456;-4.456;2024-01-11T10:03:00;33.75;;;27.00;;
74177;SDS011;62540;48.456;-4.456;2024-01-11T10:05:26;36.75;;;29.75;;
74177;SDS011;62540;48.456;-4.456;2024-01-11T10:07:54;31.50;;;26.00;;
74177;SDS011;62540;48.456;-4.456;2024-01-11T10:10:19;28.50;;;27.25;;
74177;SDS011;62540;48.456;-4.456;2024-01-11T10:12:45;32.00;;;30.50;;
74177;SDS011;62540;48.456;-4.456;2024-01-11T10:15:12;33.75;;;30.75;;
74177;SDS011;62540;48.456;-4.456;2024-01-11T10:17:41;38.75;;;30.00;;
74177;SDS011;62540;48.456;-4.456;2024-01-11T10:20:09;30.00;;;26.25;;
74177;SDS011;62540;48.456;-4.456;2024-01-11T10:22:42;30.25;;;28.50;;
74177;SDS011;62540;48.456;-4.456;2024-01-11T10:25:12;35.00;;;30.00;;
74177;SDS011;62540;48.456;-4.456;2024-01-11T10:27:42;33.25;;;27.50;;
74177;SDS011;62540;48.456;-4.456;2024-01-11T10:30:09;33.25;;;26.25;;
74177;SDS011;62540;48.456;-4.456;2024-01-11T10:32:38;29.50;;;28.25;;
74177;SDS011;62540;48.456;-4.456;2024-01-11T10:35:03;36.00;;;31.25;;
74177;SDS011;62540;48.456;-4.456;2024-01-11T10:37:30;31.25;;;25.25;;
74177;SDS011;62540;48.456;-4.456;2024-01-11T10:39:58;37.00;;;25.25;;
74177;SDS011;62540;48.456;-4.456;2024-01-11T10:42:26;35.00;;;32.25;;
74177;SDS011;62540;48.456;-4.456;2024-01-11T10:44:54;31.25;;;25.75;;
74177;SDS011;62540;48.456;-4.456;2024-01-11T10:47:23;24.00;;;16.75;;
74177;SDS011;62540;48.456;-4.456;2024-01-11T10:49:53;33.25;;;27.25;;
74177;SDS011;62540;48.456;-4.456;2024-01-11T10:52:21;30.25;;;26.50;;
74177;SDS011;62540;48.456;-4.456;2024-01-11T10:54:50;35.00;;;26.25;;
74177;SDS011;62540;48.456;-4.456;2024-01-11T10:57:16;29.50;;;27.50;;
74177;SDS011;62540;48.456;-4.456;2024-01-11T10:59:43;30.75;;;25.25;;
74177;SDS011;62540;48.456;-4.456;2024-01-11T11:02:10;30.75;;;27.75;;
74177;SDS011;62540;48.456;-4.456;2024-01-11T11:04:37;34.25;;;27.25;;
74177;SDS011;62540;48.456;-4.456;2024-01-11T11:07:03;27.50;;;25.25;;
74177;SDS011;62540;48.456;-4.456;2024-01-11T11:09:32;30.00;;;25.25;;
74177;SDS011;62540;48.456;-4.456;2024-01-11T11:12:00;34.25;;;30.25;;
74177;SDS011;62540;48.456;-4.456;2024-01-11T11:14:25;32.50;;;25.75;;
74177;SDS011;62540;48.456;-4.456;2024-01-11T11:16:53;32.25;;;27.00;;
74177;SDS011;62540;48.456;-4.456;2024-01-11T11:19:19;33.00;;;24.00;;
74177;SDS011;62540;48.456;-4.456;2024-01-11T11:21:45;28.50;;;23.25;;
74177;SDS011;62540;48.456;-4.456;2024-01-11T11:24:13;22.75;;;21.50;;
74177;SDS011;62540;48.456;-4.456;2024-01-11T11:26:39;30.25;;;23.75;;
74177;SDS011;62540;48.456;-4.456;2024-01-11T11:29:04;24.50;;;20.50;;
74177;SDS011;62540;48.456;-4.456;2024-01-11T11:32:05;25.00;;;24.25;;
74177;SDS011;62540;48.456;-4.456;2024-01-11T11:34:40;28.25;;;24.25;;
74177;SDS011;62540;48.456;-4.456;2024-01-11T11:37:11;26.00;;;22.00;;
74177;SDS011;62540;48.456;-4.456;2024-01-11T11:39:37;24.50;;;23.50;;
74177;SDS011;62540;48.456;-4.456;2024-01-11T11:42:04;25.00;;;23.00;;
74177;SDS011;62540;48.456;-4.456;2024-01-11T11:44:29;25.25;;;23.00;;
74177;SDS011;62540;48.456;-4.456;2024-01-11T11:46:55;28.00;;;24.25;;
74177;SDS011;62540;48.456;-4.456;2024-01-11T11:52:32;22.50;;;19.25;;
74177;SDS011;62540;48.456;-4.456;2024-01-11T11:54:59;29.00;;;23.75;;
74177;SDS011;62540;48.456;-4.456;2024-01-11T11:57:26;26.00;;;20.75;;
74177;SDS011;62540;48.456;-4.456;2024-01-11T11:59:54;28.25;;;23.25;;
74177;SDS011;62540;48.456;-4.456;2024-01-11T12:02:22;29.25;;;23.00;;
74177;SDS011;62540;48.456;-4.456;2024-01-11T12:04:49;27.00;;;23.00;;
74177;SDS011;62540;48.456;-4.456;2024-01-11T12:07:15;27.00;;;24.00;;
74177;SDS011;62540;48.456;-4.456;2024-01-11T12:09:41;34.00;;;25.50;;
74177;SDS011;62540;48.456;-4.456;2024-01-11T12:12:07;33.00;;;24.50;;
74177;SDS011;62540;48.456;-4.456;2024-01-11T12:14:33;38.00;;;29.75;;
74177;SDS011;62540;48.456;-4.456;2024-01-11T12:17:02;36.00;;;30.00;;
74177;SDS011;62540;48.456;-4.456;2024-01-11T12:19:28;32.00;;;27.00;;
74177;SDS011;62540;48.456;-4.456;2024-01-11T12:21:53;29.25;;;26.75;;
74177;SDS011;62540;48.456;-4.456;2024-01-11T12:24:19;29.75;;;24.50;;
74177;SDS011;62540;48.456;-4.456;2024-01-11T12:26:47;33.50;;;28.25;;
74177;SDS011;62540;48.456;-4.456;2024-01-11T12:29:15;32.50;;;27.00;;
74177;SDS011;62540;48.456;-4.456;2024-01-11T12:31:42;28.75;;;26.25;;
74177;SDS011;62540;48.456;-4.456;2024-01-11T12:34:07;33.50;;;28.75;;
74177;SDS011;62540;48.456;-4.456;2024-01-11T12:36:33;28.75;;;24.75;;
74177;SDS011;62540;48.456;-4.456;2024-01-11T12:38:59;27.25;;;26.50;;
74177;SDS011;62540;48.456;-4.456;2024-01-11T12:41:24;27.75;;;26.25;;
74177;SDS011;62540;48.456;-4.456;2024-01-11T12:43:50;32.50;;;27.50;;
74177;SDS011;62540;48.456;-4.456;2024-01-11T12:46:15;27.25;;;23.75;;
74177;SDS011;62540;48.456;-4.456;2024-01-11T12:48:42;30.25;;;27.50;;
74177;SDS011;62540;48.456;-4.456;2024-01-11T12:51:07;24.75;;;22.50;;
74177;SDS011;62540;48.456;-4.456;2024-01-11T12:53:33;30.75;;;25.25;;
74177;SDS011;62540;48.456;-4.456;2024-01-11T12:56:04;28.75;;;25.00;;
74177;SDS011;62540;48.456;-4.456;2024-01-11T12:58:35;26.25;;;23.75;;
74177;SDS011;62540;48.456;-4.456;2024-01-11T13:01:02;28.50;;;23.25;;
74177;SDS011;62540;48.456;-4.456;2024-01-11T13:03:29;26.75;;;23.00;;
74177;SDS011;62540;48.456;-4.456;2024-01-11T13:05:55;29.25;;;23.25;;
74177;SDS011;62540;48.456;-4.456;2024-01-11T13:08:21;27.25;;;26.00;;
74177;SDS011;62540;48.456;-4.456;2024-01-11T13:10:47;26.25;;;22.00;;
74177;SDS011;62540;48.456;-4.456;2024-01-11T13:13:12;33.50;;;26.25;;
74177;SDS011;62540;48.456;-4.456;2024-01-11T13:15:39;24.00;;;21.75;;
74177;SDS011;62540;48.456;-4.456;2024-01-11T13:18:05;27.25;;;24.50;;
74177;SDS011;62540;48.456;-4.456;2024-01-11T13:20:30;23.50;;;22.50;;
74177;SDS011;62540;48.456;-4.456;2024-01-11T13:25:38;28.00;;;25.50;;
74177;SDS011;62540;48.456;-4.456;2024-01-11T13:28:04;29.75;;;25.75;;
74177;SDS011;62540;48.456;-4.456;2024-01-11T13:30:31;31.00;;;20.75;;
74177;SDS011;62540;48.456;-4.456;2024-01-11T13:32:57;30.75;;;26.25;;
74177;SDS011;62540;48.456;-4.456;2024-01-11T13:35:23;22.00;;;21.00;;
74177;SDS011;62540;48.456;-4.456;2024-01-11T13:37:48;23.00;;;20.75;;
74177;SDS011;62540;48.456;-4.456;2024-01-11T13:40:14;25.50;;;23.00;;
74177;SDS011;62540;48.456;-4.456;2024-01-11T13:42:39;28.50;;;25.00;;
74177;SDS011;62540;48.456;-4.456;2024-01-11T13:45:05;24.75;;;22.25;;
74177;SDS011;62540;48.456;-4.456;2024-01-11T13:47:34;22.50;;;21.25;;
74177;SDS011;62540;48.456;-4.456;2024-01-11T13:49:59;28.00;;;24.50;;
74177;SDS011;62540;48.456;-4.456;2024-01-11T13:52:25;27.00;;;25.50;;
74177;SDS011;62540;48.456;-4.456;2024-01-11T13:54:50;25.25;;;22.00;;
74177;SDS011;62540;48.456;-4.456;2024-01-11T13:57:16;21.75;;;20.25;;
74177;SDS011;62540;48.456;-4.456;2024-01-11T13:59:41;26.50;;;22.75;;
74177;SDS011;62540;48.456;-4.456;2024-01-11T14:02:07;26.25;;;24.00;;
74177;SDS011;62540;48.456;-4.456;2024-01-11T14:04:32;26.50;;;23.50;;
74177;SDS011;62540;48.456;-4.456;2024-01-11T14:06:59;23.25;;;21.50;;
74177;SDS011;62540;48.456;-4.456;2024-01-11T14:09:25;29.50;;;23.00;;